Time;durP1;ratioP1;P1;durP2;ratioP2;P2;SDS_P1;SDS_P2;PMS_P1;PMS_P2;Temp;Humidity;BMP_temperature;BMP_pressure;BME280_temperature;BME280_humidity;BME280_pressure;Samples;Min_cycle;Max_cycle;Signal;HPM_P1;HPM_P2
2022/04/09 00:00:41;;;;;;;10.18;2.22;;;;;;;;;;5076852;28;20115;-79
2022/04/09 00:03:06;;;;;;;11.63;2.20;;;;;;;;;;5058928;28;20024;-78
2022/04/09 00:05:32;;;;;;;7.47;2.40;;;;;;;;;;5078665;28;20031;-78
2022/04/09 00:07:58;;;;;;;7.30;2.33;;;;;;;;;;5076835;28;20427;-78
2022/04/09 00:10:24;;;;;;;9.18;2.58;;;;;;;;;;5076694;28;20025;-78
2022/04/09 00:12:50;;;;;;;3.85;2.10;;;;;;;;;;5076744;28;20065;-78
2022/04/09 00:15:16;;;;;;;10.18;2.42;;;;;;;;;;5076846;28;20024;-78
2022/04/09 00:17:45;;;;;;;7.05;1.77;;;;;;;;;;5076523;28;20032;-77
2022/04/09 00:20:13;;;;;;;5.53;2.00;;;;;;;;;;5075600;28;20048;-78
2022/04/09 00:22:39;;;;;;;6.70;2.08;;;;;;;;;;5058650;28;20111;-77
2022/04/09 00:25:05;;;;;;;5.65;2.05;;;;;;;;;;5059676;28;20103;-77
2022/04/09 00:27:31;;;;;;;4.85;2.03;;;;;;;;;;5077105;28;20024;-78
2022/04/09 00:29:56;;;;;;;8.38;2.10;;;;;;;;;;5076505;28;20172;-78
2022/04/09 00:32:22;;;;;;;6.20;2.10;;;;;;;;;;5076614;28;20464;-78
2022/04/09 00:34:48;;;;;;;9.63;2.38;;;;;;;;;;5041486;28;20067;-78
2022/04/09 00:37:14;;;;;;;8.55;2.70;;;;;;;;;;5076147;28;20032;-78
2022/04/09 00:39:39;;;;;;;7.07;2.00;;;;;;;;;;5058393;28;20356;-78
2022/04/09 00:42:05;;;;;;;6.60;2.00;;;;;;;;;;5075992;28;20139;-77
2022/04/09 00:44:33;;;;;;;5.63;2.47;;;;;;;;;;5041754;28;20024;-78
2022/04/09 00:46:59;;;;;;;7.82;2.17;;;;;;;;;;5076239;28;20405;-78
2022/04/09 00:49:24;;;;;;;5.55;2.17;;;;;;;;;;5075002;28;20059;-78
2022/04/09 00:51:50;;;;;;;5.40;2.13;;;;;;;;;;5076285;28;20020;-78
2022/04/09 00:54:16;;;;;;;5.25;2.15;;;;;;;;;;5075872;28;20029;-78
2022/04/09 00:56:42;;;;;;;7.03;2.08;;;;;;;;;;5041369;28;20065;-78
2022/04/09 00:59:10;;;;;;;6.53;2.08;;;;;;;;;;5058144;28;20063;-78
2022/04/09 01:01:36;;;;;;;8.85;2.40;;;;;;;;;;5058361;28;20035;-78
2022/04/09 01:04:07;;;;;;;12.40;2.08;;;;;;;;;;5057539;28;20036;-78
2022/04/09 01:06:33;;;;;;;7.75;1.90;;;;;;;;;;5076691;28;20036;-77
2022/04/09 01:08:59;;;;;;;5.35;2.08;;;;;;;;;;5079244;28;20453;-78
2022/04/09 01:11:26;;;;;;;5.00;2.17;;;;;;;;;;5076236;28;20432;-78
2022/04/09 01:13:51;;;;;;;5.03;1.95;;;;;;;;;;5074694;28;20076;-78
2022/04/09 01:16:16;;;;;;;3.88;1.90;;;;;;;;;;5057559;28;20028;-78
2022/04/09 01:18:42;;;;;;;7.82;1.90;;;;;;;;;;5075516;28;20070;-78
2022/04/09 01:21:07;;;;;;;5.43;1.90;;;;;;;;;;5075254;28;20451;-77
2022/04/09 01:23:33;;;;;;;5.40;1.90;;;;;;;;;;5075288;28;20032;-78
2022/04/09 01:25:59;;;;;;;6.80;2.35;;;;;;;;;;5075125;28;20051;-78
2022/04/09 01:28:25;;;;;;;6.00;1.70;;;;;;;;;;5077887;28;20063;-78
2022/04/09 01:30:51;;;;;;;8.68;1.90;;;;;;;;;;5075304;28;20442;-78
2022/04/09 01:33:20;;;;;;;6.10;1.73;;;;;;;;;;5057149;28;20442;-78
2022/04/09 01:35:46;;;;;;;7.10;1.75;;;;;;;;;;5073725;28;20032;-78
2022/04/09 01:38:11;;;;;;;5.10;1.98;;;;;;;;;;5040703;28;20028;-77
2022/04/09 01:40:37;;;;;;;3.92;1.50;;;;;;;;;;5057363;28;20038;-78
2022/04/09 01:43:03;;;;;;;5.50;1.85;;;;;;;;;;5074661;28;20409;-77
2022/04/09 01:45:28;;;;;;;6.78;1.80;;;;;;;;;;5040674;28;20102;-78
2022/04/09 01:47:54;;;;;;;9.40;2.22;;;;;;;;;;5075936;28;20150;-78
2022/04/09 01:50:21;;;;;;;6.47;1.70;;;;;;;;;;5075933;28;20039;-78
2022/04/09 01:52:47;;;;;;;3.83;1.58;;;;;;;;;;5075287;28;20354;-78
2022/04/09 01:55:12;;;;;;;7.80;1.98;;;;;;;;;;5074804;28;20028;-77
2022/04/09 01:57:38;;;;;;;5.18;1.80;;;;;;;;;;5056888;28;20074;-78
2022/04/09 02:00:08;;;;;;;8.75;2.00;;;;;;;;;;5074393;28;20556;-77
2022/04/09 02:02:34;;;;;;;7.68;1.58;;;;;;;;;;5074312;28;20431;-78
2022/04/09 02:05:00;;;;;;;6.85;2.20;;;;;;;;;;5080350;28;20024;-76
2022/04/09 02:07:27;;;;;;;5.03;1.85;;;;;;;;;;5079833;28;20052;-77
2022/04/09 02:09:53;;;;;;;7.88;1.85;;;;;;;;;;5083475;28;20092;-78
2022/04/09 02:12:19;;;;;;;8.80;1.90;;;;;;;;;;5086903;28;20457;-78
2022/04/09 02:14:44;;;;;;;11.93;3.30;;;;;;;;;;5089564;28;20060;-76
2022/04/09 02:17:10;;;;;;;11.75;2.72;;;;;;;;;;5089522;28;20025;-76
2022/04/09 02:19:36;;;;;;;11.77;2.58;;;;;;;;;;5070938;28;20020;-79
2022/04/09 02:22:02;;;;;;;6.18;2.00;;;;;;;;;;5062376;28;20048;-78
2022/04/09 02:24:27;;;;;;;7.75;2.30;;;;;;;;;;5057005;28;20067;-77
2022/04/09 02:26:53;;;;;;;7.47;2.17;;;;;;;;;;5074185;28;20099;-77
2022/04/09 02:29:18;;;;;;;7.97;2.10;;;;;;;;;;5077270;28;20054;-78
2022/04/09 02:31:44;;;;;;;4.53;1.95;;;;;;;;;;5074430;28;20358;-77
2022/04/09 02:34:09;;;;;;;5.68;1.80;;;;;;;;;;5056208;28;20359;-78
2022/04/09 02:36:36;;;;;;;9.55;2.00;;;;;;;;;;5074325;28;20062;-77
2022/04/09 02:39:02;;;;;;;8.52;2.17;;;;;;;;;;5056830;28;20078;-77
2022/04/09 02:41:29;;;;;;;9.05;2.00;;;;;;;;;;5073874;28;20401;-77
2022/04/09 02:43:54;;;;;;;7.53;1.90;;;;;;;;;;5073864;28;20039;-78
2022/04/09 02:46:21;;;;;;;9.30;2.30;;;;;;;;;;5056280;28;20424;-78
2022/04/09 02:48:46;;;;;;;7.00;1.92;;;;;;;;;;5073888;28;20035;-78
2022/04/09 02:51:12;;;;;;;8.52;2.10;;;;;;;;;;5078405;28;20028;-78
2022/04/09 02:53:38;;;;;;;6.20;2.00;;;;;;;;;;5073966;28;20078;-78
2022/04/09 02:56:04;;;;;;;9.25;2.13;;;;;;;;;;5073921;28;20446;-78
2022/04/09 02:58:29;;;;;;;7.32;1.92;;;;;;;;;;5039318;28;20457;-78
2022/04/09 03:00:55;;;;;;;6.07;1.92;;;;;;;;;;5074105;28;20021;-78
2022/04/09 03:03:20;;;;;;;7.10;1.83;;;;;;;;;;5039767;28;20131;-76
2022/04/09 03:05:46;;;;;;;8.60;2.17;;;;;;;;;;5074088;28;20032;-78
2022/04/09 03:08:11;;;;;;;23.30;6.50;;;;;;;;;;5055861;28;20078;-77
2022/04/09 03:10:37;;;;;;;18.20;4.90;;;;;;;;;;5075998;28;20033;-76
2022/04/09 03:13:04;;;;;;;8.07;2.42;;;;;;;;;;5061389;28;20064;-78
2022/04/09 03:15:29;;;;;;;7.03;2.42;;;;;;;;;;5078292;28;20357;-78
2022/04/09 03:17:55;;;;;;;12.82;2.95;;;;;;;;;;5077690;28;20025;-78
2022/04/09 03:20:20;;;;;;;10.27;2.10;;;;;;;;;;5059684;28;20029;-78
2022/04/09 03:22:47;;;;;;;8.32;2.22;;;;;;;;;;5077683;28;20473;-78
2022/04/09 03:25:12;;;;;;;5.35;1.83;;;;;;;;;;5077424;28;20025;-77
2022/04/09 03:27:38;;;;;;;10.73;2.30;;;;;;;;;;5077323;28;20032;-78
2022/04/09 03:30:05;;;;;;;10.73;2.10;;;;;;;;;;5077982;28;20037;-78
2022/04/09 03:32:30;;;;;;;10.00;2.38;;;;;;;;;;5077345;28;20059;-78
2022/04/09 03:34:57;;;;;;;8.60;2.20;;;;;;;;;;5077366;28;20364;-77
2022/04/09 03:37:22;;;;;;;5.20;1.98;;;;;;;;;;5077347;28;20031;-78
2022/04/09 03:39:49;;;;;;;11.82;2.20;;;;;;;;;;5059709;28;20025;-77
2022/04/09 03:42:15;;;;;;;15.20;2.00;;;;;;;;;;5059276;28;20032;-77
2022/04/09 03:44:40;;;;;;;7.22;2.00;;;;;;;;;;5060856;28;20021;-77
2022/04/09 03:47:06;;;;;;;10.80;2.22;;;;;;;;;;5077475;28;20107;-77
2022/04/09 03:49:32;;;;;;;5.75;1.95;;;;;;;;;;5077014;28;20035;-78
2022/04/09 03:51:57;;;;;;;7.00;2.60;;;;;;;;;;5077076;28;20021;-78
2022/04/09 03:54:23;;;;;;;9.05;2.50;;;;;;;;;;5042679;28;20031;-78
2022/04/09 03:56:49;;;;;;;11.30;2.55;;;;;;;;;;5058864;28;20369;-78
2022/04/09 03:59:15;;;;;;;7.15;2.08;;;;;;;;;;5076920;28;20025;-78
2022/04/09 04:01:43;;;;;;;10.48;2.33;;;;;;;;;;5076878;28;20375;-78
2022/04/09 04:04:10;;;;;;;11.00;2.90;;;;;;;;;;5079180;28;20028;-77
2022/04/09 04:06:35;;;;;;;8.65;2.58;;;;;;;;;;5078046;28;20033;-77
2022/04/09 04:09:01;;;;;;;11.57;3.05;;;;;;;;;;5042147;28;20036;-78
2022/04/09 04:11:27;;;;;;;10.65;3.13;;;;;;;;;;5076382;28;20127;-78
2022/04/09 04:13:53;;;;;;;8.90;3.03;;;;;;;;;;5076710;28;20376;-77
2022/04/09 04:16:18;;;;;;;12.90;3.40;;;;;;;;;;5076685;28;20126;-77
2022/04/09 04:18:44;;;;;;;8.63;3.28;;;;;;;;;;5076599;28;20035;-78
2022/04/09 04:21:09;;;;;;;15.30;3.45;;;;;;;;;;5076844;28;20106;-78
2022/04/09 04:23:35;;;;;;;9.80;3.35;;;;;;;;;;5076318;28;20119;-77
2022/04/09 04:26:01;;;;;;;13.65;3.63;;;;;;;;;;5078710;28;20029;-78
2022/04/09 04:28:26;;;;;;;13.13;3.90;;;;;;;;;;5076370;28;20032;-78
2022/04/09 04:30:52;;;;;;;10.88;3.78;;;;;;;;;;5076369;28;20035;-78
2022/04/09 04:33:18;;;;;;;13.98;3.17;;;;;;;;;;5076515;28;20154;-77
2022/04/09 04:35:44;;;;;;;11.60;3.30;;;;;;;;;;5076253;28;20035;-78
2022/04/09 04:38:09;;;;;;;11.25;3.15;;;;;;;;;;5058415;28;20028;-78
2022/04/09 04:40:35;;;;;;;10.95;3.47;;;;;;;;;;5076040;28;20040;-78
2022/04/09 04:43:00;;;;;;;10.32;3.30;;;;;;;;;;5075952;28;20412;-78
2022/04/09 04:45:26;;;;;;;7.50;3.05;;;;;;;;;;5078541;28;20353;-78
2022/04/09 04:47:51;;;;;;;14.85;3.20;;;;;;;;;;5058830;28;20111;-78
2022/04/09 04:50:17;;;;;;;19.15;3.97;;;;;;;;;;5076036;28;20036;-78
2022/04/09 04:52:43;;;;;;;12.77;4.15;;;;;;;;;;5075946;28;20028;-78
2022/04/09 04:55:09;;;;;;;12.00;3.78;;;;;;;;;;5075700;28;20441;-78
2022/04/09 04:57:40;;;;;;;14.02;3.83;;;;;;;;;;5057948;28;20032;-78
2022/04/09 05:00:06;;;;;;;9.70;3.58;;;;;;;;;;5076036;28;20032;-77
2022/04/09 05:02:32;;;;;;;9.43;3.20;;;;;;;;;;5076175;28;20354;-78
2022/04/09 05:04:57;;;;;;;8.30;2.72;;;;;;;;;;5075753;28;20405;-78
2022/04/09 05:07:23;;;;;;;10.45;2.63;;;;;;;;;;5076971;28;20051;-78
2022/04/09 05:09:48;;;;;;;11.73;3.33;;;;;;;;;;5075036;28;20373;-78
2022/04/09 05:12:14;;;;;;;10.38;2.95;;;;;;;;;;5075571;28;20020;-78
2022/04/09 05:14:39;;;;;;;6.50;2.65;;;;;;;;;;5041205;28;20032;-78
2022/04/09 05:17:05;;;;;;;8.13;2.85;;;;;;;;;;5057528;28;20461;-78
2022/04/09 05:19:30;;;;;;;7.80;2.72;;;;;;;;;;5057794;28;20175;-78
2022/04/09 05:21:56;;;;;;;15.35;3.13;;;;;;;;;;5057475;28;20029;-78
2022/04/09 05:24:21;;;;;;;8.63;2.78;;;;;;;;;;5075376;28;20436;-78
2022/04/09 05:26:47;;;;;;;10.60;2.38;;;;;;;;;;5077772;28;20019;-78
2022/04/09 05:29:12;;;;;;;8.95;2.55;;;;;;;;;;5075996;28;20372;-78
2022/04/09 05:31:38;;;;;;;9.27;2.60;;;;;;;;;;5075483;28;20036;-78
2022/04/09 05:34:03;;;;;;;11.02;2.58;;;;;;;;;;5074498;28;20078;-78
2022/04/09 05:36:29;;;;;;;16.23;2.70;;;;;;;;;;5075084;28;20031;-79
2022/04/09 05:38:54;;;;;;;8.77;2.60;;;;;;;;;;5074836;28;20040;-78
2022/04/09 05:41:20;;;;;;;10.30;2.20;;;;;;;;;;5074776;28;20047;-79
2022/04/09 05:43:45;;;;;;;10.43;2.25;;;;;;;;;;5057022;28;20033;-78
2022/04/09 05:46:11;;;;;;;9.23;2.22;;;;;;;;;;5074851;28;20028;-79
2022/04/09 05:48:36;;;;;;;9.85;2.08;;;;;;;;;;5075518;28;20040;-79
2022/04/09 05:51:02;;;;;;;11.27;2.20;;;;;;;;;;5075018;28;20032;-76
2022/04/09 05:53:27;;;;;;;8.55;1.92;;;;;;;;;;5056671;28;20111;-77
2022/04/09 05:55:53;;;;;;;9.00;2.28;;;;;;;;;;5074866;28;20052;-77
2022/04/09 05:58:18;;;;;;;7.40;1.90;;;;;;;;;;5074675;28;20067;-77
2022/04/09 06:00:44;;;;;;;8.38;2.00;;;;;;;;;;5074572;28;20029;-77
2022/04/09 06:03:10;;;;;;;5.53;1.95;;;;;;;;;;5056870;28;20024;-77
2022/04/09 06:05:36;;;;;;;14.32;2.33;;;;;;;;;;5074720;28;20504;-78
2022/04/09 06:08:01;;;;;;;8.23;1.90;;;;;;;;;;5075575;28;20024;-78
2022/04/09 06:10:26;;;;;;;7.68;2.00;;;;;;;;;;5074789;28;20038;-78
2022/04/09 06:12:52;;;;;;;10.80;2.13;;;;;;;;;;5074456;28;20082;-78
2022/04/09 06:15:17;;;;;;;12.43;2.67;;;;;;;;;;5074643;28;20025;-78
2022/04/09 06:17:43;;;;;;;10.23;1.98;;;;;;;;;;5074417;28;20024;-78
2022/04/09 06:20:09;;;;;;;13.55;2.40;;;;;;;;;;5040036;28;20031;-79
2022/04/09 06:22:35;;;;;;;9.70;2.05;;;;;;;;;;5074153;28;20519;-78
2022/04/09 06:25:00;;;;;;;7.85;2.20;;;;;;;;;;5074257;28;20024;-77
2022/04/09 06:27:26;;;;;;;9.48;2.33;;;;;;;;;;5057143;28;20024;-76
2022/04/09 06:29:51;;;;;;;10.20;2.05;;;;;;;;;;5076691;28;20353;-77
2022/04/09 06:32:17;;;;;;;8.75;2.22;;;;;;;;;;5074190;28;20024;-78
2022/04/09 06:34:42;;;;;;;9.32;2.20;;;;;;;;;;5074110;28;20024;-78
2022/04/09 06:37:08;;;;;;;11.45;2.08;;;;;;;;;;5074170;28;20024;-78
2022/04/09 06:39:34;;;;;;;8.65;2.17;;;;;;;;;;5074167;28;20032;-78
2022/04/09 06:41:59;;;;;;;12.85;2.40;;;;;;;;;;5073969;28;20083;-78
2022/04/09 06:44:25;;;;;;;6.13;1.80;;;;;;;;;;5074161;28;20035;-78
2022/04/09 06:46:51;;;;;;;9.88;2.00;;;;;;;;;;5073085;28;20150;-78
2022/04/09 06:49:16;;;;;;;7.53;1.90;;;;;;;;;;5079843;28;20062;-78
2022/04/09 06:51:42;;;;;;;11.07;2.03;;;;;;;;;;5073974;28;20032;-78
2022/04/09 06:54:09;;;;;;;8.48;2.20;;;;;;;;;;5056278;28;20068;-78
2022/04/09 06:56:36;;;;;;;8.80;2.03;;;;;;;;;;5039798;28;20745;-78
2022/04/09 06:59:03;;;;;;;9.65;1.80;;;;;;;;;;5056738;28;20123;-79
2022/04/09 07:01:29;;;;;;;8.43;2.17;;;;;;;;;;5056245;28;20029;-79
2022/04/09 07:03:55;;;;;;;5.13;2.00;;;;;;;;;;5056367;28;20115;-79
2022/04/09 07:06:21;;;;;;;9.75;1.65;;;;;;;;;;5073661;28;20128;-79
2022/04/09 07:08:47;;;;;;;8.88;2.00;;;;;;;;;;5079244;28;20013;-78
2022/04/09 07:11:13;;;;;;;6.40;1.92;;;;;;;;;;5075108;28;20028;-78
2022/04/09 07:13:38;;;;;;;9.90;2.25;;;;;;;;;;5055999;28;20364;-78
2022/04/09 07:16:04;;;;;;;7.28;1.85;;;;;;;;;;5073711;28;20449;-79
2022/04/09 07:18:30;;;;;;;16.15;2.20;;;;;;;;;;5073672;28;20044;-79
2022/04/09 07:20:55;;;;;;;12.38;2.20;;;;;;;;;;5073471;28;20033;-77
2022/04/09 07:23:20;;;;;;;9.05;2.03;;;;;;;;;;5073945;28;20039;-79
2022/04/09 07:25:46;;;;;;;8.95;2.20;;;;;;;;;;5073928;28;20433;-78
2022/04/09 07:28:11;;;;;;;9.55;1.80;;;;;;;;;;5075102;28;20032;-77
2022/04/09 07:30:38;;;;;;;8.93;2.10;;;;;;;;;;5079882;28;20041;-79
2022/04/09 07:33:04;;;;;;;12.57;2.10;;;;;;;;;;5073644;28;20035;-78
2022/04/09 07:35:29;;;;;;;12.65;2.08;;;;;;;;;;5073956;28;20025;-79
2022/04/09 07:37:55;;;;;;;9.75;2.03;;;;;;;;;;5073648;28;20036;-77
2022/04/09 07:40:24;;;;;;;9.18;1.70;;;;;;;;;;5073608;28;20060;-80
2022/04/09 07:42:50;;;;;;;7.20;1.90;;;;;;;;;;5055376;28;20044;-77
2022/04/09 07:45:15;;;;;;;9.00;2.30;;;;;;;;;;5073491;28;20039;-78
2022/04/09 07:47:41;;;;;;;10.43;2.03;;;;;;;;;;5073532;28;20028;-79
2022/04/09 07:50:10;;;;;;;13.73;2.05;;;;;;;;;;5075586;28;20037;-77
2022/04/09 07:52:39;;;;;;;12.17;2.43;;;;;;;;;;5056099;28;20036;-79
2022/04/09 07:55:09;;;;;;;9.93;2.10;;;;;;;;;;5073699;28;20033;-79
2022/04/09 07:57:34;;;;;;;6.72;1.90;;;;;;;;;;5075021;28;20468;-79
2022/04/09 08:00:00;;;;;;;6.72;2.15;;;;;;;;;;5042869;28;20024;-79
2022/04/09 08:02:25;;;;;;;11.90;2.00;;;;;;;;;;5059171;28;20028;-79
2022/04/09 08:04:51;;;;;;;8.43;2.13;;;;;;;;;;5059158;28;20036;-79
2022/04/09 08:07:16;;;;;;;7.63;1.90;;;;;;;;;;5076836;28;20404;-79
2022/04/09 08:09:44;;;;;;;8.85;2.03;;;;;;;;;;5079711;28;20068;-78
2022/04/09 08:12:12;;;;;;;6.00;2.00;;;;;;;;;;5077353;28;20109;-79
2022/04/09 08:14:38;;;;;;;8.10;1.90;;;;;;;;;;5059079;28;20499;-79
2022/04/09 08:17:03;;;;;;;8.60;2.10;;;;;;;;;;5076921;28;20024;-78
2022/04/09 08:19:29;;;;;;;10.43;2.05;;;;;;;;;;5076361;28;20350;-80
2022/04/09 08:21:56;;;;;;;7.13;1.88;;;;;;;;;;5076548;28;20028;-79
2022/04/09 08:24:21;;;;;;;11.23;2.42;;;;;;;;;;5077036;28;20032;-79
2022/04/09 08:26:47;;;;;;;8.35;1.67;;;;;;;;;;5076712;28;20032;-78
2022/04/09 08:29:18;;;;;;;12.05;1.80;;;;;;;;;;5078222;28;20041;-78
2022/04/09 08:31:46;;;;;;;6.43;1.80;;;;;;;;;;5079042;28;20166;-79
2022/04/09 08:34:11;;;;;;;6.32;1.95;;;;;;;;;;5076387;28;20066;-79
2022/04/09 08:36:37;;;;;;;6.85;1.80;;;;;;;;;;5076879;28;20058;-79
2022/04/09 08:39:02;;;;;;;7.13;1.88;;;;;;;;;;5076494;28;20039;-78
2022/04/09 08:41:28;;;;;;;9.38;2.00;;;;;;;;;;5076183;28;20049;-79
2022/04/09 08:43:54;;;;;;;5.80;1.98;;;;;;;;;;5057135;28;20445;-78
2022/04/09 08:46:19;;;;;;;5.90;1.80;;;;;;;;;;5074878;28;20123;-78
2022/04/09 08:48:46;;;;;;;5.97;1.88;;;;;;;;;;5075758;28;20056;-78
2022/04/09 08:51:12;;;;;;;7.68;1.88;;;;;;;;;;5063173;28;20029;-79
2022/04/09 08:53:37;;;;;;;9.75;1.88;;;;;;;;;;5075135;28;20127;-78
2022/04/09 08:56:03;;;;;;;10.85;1.95;;;;;;;;;;5040403;28;20098;-78
2022/04/09 08:58:29;;;;;;;6.85;1.83;;;;;;;;;;5057149;28;20021;-80
2022/04/09 09:00:55;;;;;;;9.55;2.08;;;;;;;;;;5056669;28;20036;-78
2022/04/09 09:03:20;;;;;;;11.15;1.90;;;;;;;;;;5074735;28;20028;-79
2022/04/09 09:05:52;;;;;;;10.43;1.88;;;;;;;;;;5056828;28;20036;-79
2022/04/09 09:08:38;;;;;;;10.20;1.73;;;;;;;;;;5056773;28;20028;-78
2022/04/09 09:11:04;;;;;;;8.60;2.03;;;;;;;;;;5063766;28;20044;-80
2022/04/09 09:13:29;;;;;;;7.32;1.63;;;;;;;;;;5074950;28;20032;-80
2022/04/09 09:15:55;;;;;;;9.80;1.98;;;;;;;;;;5074354;28;20020;-78
2022/04/09 09:18:25;;;;;;;8.15;1.90;;;;;;;;;;5056806;28;20025;-79
2022/04/09 09:21:00;;;;;;;9.35;2.00;;;;;;;;;;5074654;28;20035;-79
2022/04/09 09:23:30;;;;;;;7.43;2.08;;;;;;;;;;5074501;28;20021;-79
2022/04/09 09:25:56;;;;;;;14.07;1.92;;;;;;;;;;5074433;28;20101;-79
2022/04/09 09:28:28;;;;;;;5.25;1.50;;;;;;;;;;5074322;28;20116;-79
2022/04/09 09:30:54;;;;;;;7.25;1.80;;;;;;;;;;5076717;28;20522;-80
2022/04/09 09:33:22;;;;;;;3.90;1.52;;;;;;;;;;5057007;28;20082;-79
2022/04/09 09:35:55;;;;;;;8.10;2.08;;;;;;;;;;5074247;28;20063;-80
2022/04/09 09:38:33;;;;;;;14.48;1.77;;;;;;;;;;5056415;28;20025;-79
2022/04/09 09:40:59;;;;;;;8.97;2.07;;;;;;;;;;5031486;28;1215079;-79
2022/04/09 09:43:25;;;;;;;5.65;1.88;;;;;;;;;;5075468;28;20033;-80
2022/04/09 09:45:52;;;;;;;5.88;1.70;;;;;;;;;;5074694;28;20028;-79
2022/04/09 09:48:28;;;;;;;4.57;1.50;;;;;;;;;;5076407;28;20397;-78
2022/04/09 09:50:55;;;;;;;12.32;2.28;;;;;;;;;;5080198;28;20112;-79
2022/04/09 09:53:33;;;;;;;8.07;1.90;;;;;;;;;;5074641;28;20461;-79
2022/04/09 09:55:59;;;;;;;5.75;2.00;;;;;;;;;;5074890;28;20024;-79
2022/04/09 09:58:29;;;;;;;9.07;2.13;;;;;;;;;;5074877;28;20025;-79
2022/04/09 10:00:56;;;;;;;8.48;1.92;;;;;;;;;;5075014;28;20033;-79
2022/04/09 10:03:22;;;;;;;7.25;1.88;;;;;;;;;;5074814;28;20031;-79
2022/04/09 10:05:48;;;;;;;11.43;1.85;;;;;;;;;;5074553;28;20025;-78
2022/04/09 10:08:13;;;;;;;6.60;1.70;;;;;;;;;;5074528;28;20028;-78
2022/04/09 10:10:41;;;;;;;7.32;2.22;;;;;;;;;;5061323;28;20539;-79
2022/04/09 10:13:06;;;;;;;7.68;1.90;;;;;;;;;;5057129;28;20042;-78
2022/04/09 10:15:32;;;;;;;7.13;2.00;;;;;;;;;;5056705;28;20028;-79
2022/04/09 10:17:59;;;;;;;5.20;1.90;;;;;;;;;;5056616;28;20027;-79
2022/04/09 10:20:25;;;;;;;4.88;1.80;;;;;;;;;;5056888;28;20025;-79
2022/04/09 10:22:53;;;;;;;10.23;1.92;;;;;;;;;;5074295;28;20069;-79
2022/04/09 10:25:19;;;;;;;4.63;1.45;;;;;;;;;;5056808;28;20035;-78
2022/04/09 10:27:49;;;;;;;8.27;1.95;;;;;;;;;;5056506;28;20024;-79
2022/04/09 10:30:22;;;;;;;5.80;2.03;;;;;;;;;;5077150;28;20125;-78
2022/04/09 10:32:51;;;;;;;5.60;1.77;;;;;;;;;;5056540;28;20024;-79
2022/04/09 10:35:38;;;;;;;8.73;1.80;;;;;;;;;;5074344;28;20020;-79
2022/04/09 10:38:07;;;;;;;5.47;1.60;;;;;;;;;;5074066;28;20503;-80
2022/04/09 10:40:55;;;;;;;7.78;1.85;;;;;;;;;;5074161;28;20028;-80
2022/04/09 10:43:30;;;;;;;7.20;1.77;;;;;;;;;;5073407;28;20036;-79
2022/04/09 10:46:08;;;;;;;10.82;1.83;;;;;;;;;;5074378;28;20036;-79
2022/04/09 10:48:39;;;;;;;6.55;1.90;;;;;;;;;;5073951;28;20469;-79
2022/04/09 10:51:04;;;;;;;5.35;2.05;;;;;;;;;;5074867;28;20052;-79
2022/04/09 10:53:34;;;;;;;6.40;1.90;;;;;;;;;;5074124;28;20137;-79
2022/04/09 10:56:21;;;;;;;10.05;1.92;;;;;;;;;;5056545;28;20078;-79
2022/04/09 10:59:01;;;;;;;6.93;1.90;;;;;;;;;;5073794;28;20032;-79
2022/04/09 11:01:48;;;;;;;8.50;1.75;;;;;;;;;;5073950;28;20048;-79
2022/04/09 11:04:34;;;;;;;3.53;1.52;;;;;;;;;;5055927;28;20058;-79
2022/04/09 11:07:10;;;;;;;8.48;1.95;;;;;;;;;;5073948;28;20031;-79
2022/04/09 11:09:42;;;;;;;5.22;1.88;;;;;;;;;;5060312;28;20447;-79
2022/04/09 11:12:07;;;;;;;4.38;1.85;;;;;;;;;;5073636;28;20447;-79
2022/04/09 11:14:47;;;;;;;9.27;1.50;;;;;;;;;;5055933;28;20068;-79
2022/04/09 11:17:19;;;;;;;10.00;2.03;;;;;;;;;;5056226;28;20338;-79
2022/04/09 11:19:45;;;;;;;6.60;1.60;;;;;;;;;;5056822;28;20028;-79
2022/04/09 11:22:10;;;;;;;9.43;2.00;;;;;;;;;;5074291;28;20040;-79
2022/04/09 11:24:37;;;;;;;5.38;1.90;;;;;;;;;;5073800;28;20446;-78
2022/04/09 11:27:02;;;;;;;8.30;2.13;;;;;;;;;;5073703;28;20064;-79
2022/04/09 11:29:35;;;;;;;6.80;1.75;;;;;;;;;;5076753;28;20453;-78
2022/04/09 11:32:00;;;;;;;13.52;2.50;;;;;;;;;;5074545;28;20025;-79
2022/04/09 11:34:26;;;;;;;6.75;1.88;;;;;;;;;;5077392;28;20066;-78
2022/04/09 11:37:09;;;;;;;4.10;1.70;;;;;;;;;;5077764;28;20124;-78
2022/04/09 11:39:39;;;;;;;5.82;2.10;;;;;;;;;;5077253;28;20095;-78
2022/04/09 11:42:04;;;;;;;;;;;;;;;;;;5077562;28;20481;-79
2022/04/09 11:44:30;;;;;;;9.50;2.20;;;;;;;;;;5077806;28;19961;-79
2022/04/09 11:46:55;;;;;;;4.75;1.55;;;;;;;;;;5059731;28;20039;-78
2022/04/09 11:49:28;;;;;;;5.57;2.05;;;;;;;;;;5079494;28;20097;-80
2022/04/09 11:51:54;;;;;;;9.75;2.00;;;;;;;;;;5059675;28;20028;-80
2022/04/09 11:54:20;;;;;;;6.90;2.30;;;;;;;;;;5059226;28;20028;-79
2022/04/09 11:56:45;;;;;;;9.43;1.90;;;;;;;;;;5058940;28;20233;-80
2022/04/09 11:59:13;;;;;;;6.05;1.88;;;;;;;;;;5076890;28;20048;-79
2022/04/09 12:01:39;;;;;;;7.32;2.17;;;;;;;;;;5077132;28;20043;-78
2022/04/09 12:04:04;;;;;;;7.70;2.03;;;;;;;;;;5076863;28;20113;-78
2022/04/09 12:06:30;;;;;;;8.68;2.13;;;;;;;;;;5042405;28;20064;-79
2022/04/09 12:08:55;;;;;;;7.72;2.00;;;;;;;;;;5060218;28;20028;-77
2022/04/09 12:11:21;;;;;;;5.32;1.80;;;;;;;;;;5059817;28;20471;-79
2022/04/09 12:13:47;;;;;;;6.13;2.00;;;;;;;;;;5076742;28;20031;-78
2022/04/09 12:16:13;;;;;;;8.27;2.00;;;;;;;;;;5077120;28;20361;-78
2022/04/09 12:18:38;;;;;;;9.43;2.40;;;;;;;;;;5076683;28;20035;-77
2022/04/09 12:21:23;;;;;;;7.90;2.28;;;;;;;;;;5076704;28;20037;-77
2022/04/09 12:24:11;;;;;;;9.55;2.58;;;;;;;;;;5058436;28;20491;-78
2022/04/09 12:26:41;;;;;;;4.65;1.80;;;;;;;;;;5059288;28;20036;-77
2022/04/09 12:29:22;;;;;;;12.52;2.30;;;;;;;;;;5061185;28;20039;-77
2022/04/09 12:31:51;;;;;;;6.00;1.85;;;;;;;;;;5046314;28;20039;-79
2022/04/09 12:34:20;;;;;;;7.32;1.73;;;;;;;;;;5076646;28;20446;-78
2022/04/09 12:37:13;;;;;;;7.55;2.10;;;;;;;;;;5076264;28;20021;-80
2022/04/09 12:39:38;;;;;;;10.15;2.13;;;;;;;;;;5055340;28;20037;-78
2022/04/09 12:42:05;;;;;;;4.38;1.90;;;;;;;;;;5076205;28;20131;-77
2022/04/09 12:44:35;;;;;;;5.78;1.77;;;;;;;;;;5076177;28;20495;-77
2022/04/09 12:47:00;;;;;;;8.77;2.00;;;;;;;;;;5076201;28;20035;-79
2022/04/09 12:49:39;;;;;;;4.68;1.65;;;;;;;;;;5078788;28;20037;-78
2022/04/09 12:52:07;;;;;;;4.13;1.77;;;;;;;;;;5059603;28;20119;-78
2022/04/09 12:54:32;;;;;;;6.47;1.75;;;;;;;;;;5075744;28;20043;-78
2022/04/09 12:57:24;;;;;;;6.55;1.90;;;;;;;;;;5058180;28;20111;-79
2022/04/09 12:59:50;;;;;;;8.20;2.00;;;;;;;;;;5054247;28;20048;-78
2022/04/09 13:02:15;;;;;;;5.07;2.05;;;;;;;;;;5075909;28;20339;-78
2022/04/09 13:04:41;;;;;;;5.07;1.83;;;;;;;;;;5058103;28;20025;-80
2022/04/09 13:07:06;;;;;;;5.05;2.22;;;;;;;;;;5078072;28;20051;-77
2022/04/09 13:09:32;;;;;;;9.52;2.10;;;;;;;;;;5060077;28;20036;-80
2022/04/09 13:11:57;;;;;;;5.22;1.90;;;;;;;;;;5082342;28;20066;-78
2022/04/09 13:14:23;;;;;;;6.05;1.85;;;;;;;;;;5064708;28;20025;-79
2022/04/09 13:16:49;;;;;;;5.90;1.80;;;;;;;;;;5081837;28;20086;-78
2022/04/09 13:19:15;;;;;;;6.10;1.80;;;;;;;;;;5064097;28;20060;-77
2022/04/09 13:21:40;;;;;;;5.60;1.98;;;;;;;;;;5064936;28;20040;-79
2022/04/09 13:24:06;;;;;;;8.00;1.70;;;;;;;;;;5062544;28;20438;-79
2022/04/09 13:26:32;;;;;;;5.65;1.70;;;;;;;;;;5058221;28;20032;-78
2022/04/09 13:28:58;;;;;;;7.72;1.85;;;;;;;;;;5076130;28;20140;-78
2022/04/09 13:31:28;;;;;;;3.10;1.65;;;;;;;;;;5080701;28;20064;-78
2022/04/09 13:34:16;;;;;;;2.78;1.88;;;;;;;;;;5058376;28;20127;-77
2022/04/09 13:36:42;;;;;;;6.95;2.20;;;;;;;;;;5074820;28;20025;-77
2022/04/09 13:39:09;;;;;;;5.28;2.20;;;;;;;;;;5075178;28;20032;-79
2022/04/09 13:41:35;;;;;;;8.00;2.00;;;;;;;;;;5075002;28;20367;-76
2022/04/09 13:44:00;;;;;;;9.38;1.90;;;;;;;;;;5075025;28;20111;-78
2022/04/09 13:46:26;;;;;;;8.43;2.03;;;;;;;;;;5074881;28;20036;-78
2022/04/09 13:48:51;;;;;;;10.05;2.08;;;;;;;;;;5074757;28;20055;-77
2022/04/09 13:51:17;;;;;;;9.15;2.30;;;;;;;;;;5061979;28;20442;-79
2022/04/09 13:53:43;;;;;;;8.45;2.40;;;;;;;;;;5075060;28;20032;-77
2022/04/09 13:56:08;;;;;;;8.00;2.00;;;;;;;;;;5056493;28;20025;-79
2022/04/09 13:58:34;;;;;;;6.53;2.65;;;;;;;;;;5074657;28;20028;-78
2022/04/09 14:00:59;;;;;;;5.85;1.80;;;;;;;;;;5074880;28;20449;-78
2022/04/09 14:03:24;;;;;;;11.18;1.90;;;;;;;;;;5056765;28;20381;-79
2022/04/09 14:05:50;;;;;;;4.90;1.75;;;;;;;;;;5074352;28;20025;-79
2022/04/09 14:08:16;;;;;;;9.23;2.15;;;;;;;;;;5074615;28;20078;-78
2022/04/09 14:10:44;;;;;;;12.35;2.17;;;;;;;;;;5079229;28;20042;-78
2022/04/09 14:13:10;;;;;;;5.97;1.70;;;;;;;;;;5076538;28;20029;-77
2022/04/09 14:15:35;;;;;;;6.68;2.03;;;;;;;;;;5074970;28;20021;-78
2022/04/09 14:18:01;;;;;;;7.07;2.25;;;;;;;;;;5056509;28;20450;-79
2022/04/09 14:20:26;;;;;;;4.80;1.70;;;;;;;;;;5074113;28;20020;-79
2022/04/09 14:22:52;;;;;;;5.18;1.90;;;;;;;;;;5074803;28;20027;-77
2022/04/09 14:25:17;;;;;;;5.72;1.85;;;;;;;;;;5074782;28;20024;-78
2022/04/09 14:27:42;;;;;;;8.32;2.03;;;;;;;;;;5075071;28;20020;-79
2022/04/09 14:30:09;;;;;;;8.30;1.98;;;;;;;;;;5074806;28;20660;-78
2022/04/09 14:32:34;;;;;;;4.05;1.67;;;;;;;;;;5075337;28;20024;-77
2022/04/09 14:35:00;;;;;;;8.40;1.85;;;;;;;;;;5073936;28;20089;-78
2022/04/09 14:37:27;;;;;;;6.07;1.55;;;;;;;;;;5074244;28;20074;-78
2022/04/09 14:39:53;;;;;;;8.13;1.70;;;;;;;;;;5074005;28;20377;-77